createdAt,value
2022-11-12T00:01:14.510Z,13.50
2022-11-12T00:03:43.676Z,13.40
2022-11-12T00:06:11.413Z,13.40
2022-11-12T00:08:39.175Z,13.40
2022-11-12T00:11:07.268Z,13.30
2022-11-12T00:13:35.165Z,13.20
2022-11-12T00:16:02.936Z,13.10
2022-11-12T00:18:30.640Z,13.20
2022-11-12T00:20:59.724Z,13.20
2022-11-12T00:23:27.458Z,13.10
2022-11-12T00:26:01.957Z,13.00
2022-11-12T00:28:34.855Z,13.00
2022-11-12T00:31:12.348Z,13.10
2022-11-12T00:33:42.162Z,13.10
2022-11-12T00:36:12.220Z,13.10
2022-11-12T00:38:40.031Z,13.00
2022-11-12T00:41:07.845Z,13.00
2022-11-12T00:43:35.638Z,13.00
2022-11-12T00:46:03.460Z,13.00
2022-11-12T00:48:31.225Z,13.00
2022-11-12T00:51:03.259Z,13.00
2022-11-12T00:53:32.420Z,12.90
2022-11-12T00:56:07.408Z,12.80
2022-11-12T00:58:36.980Z,12.90
2022-11-12T01:01:09.997Z,13.00
2022-11-12T01:03:38.324Z,12.90
2022-11-12T01:06:08.085Z,12.80
2022-11-12T01:08:37.585Z,12.80
2022-11-12T01:11:10.299Z,12.90
2022-11-12T01:13:43.946Z,12.70
2022-11-12T01:16:14.282Z,12.70
2022-11-12T01:18:42.670Z,12.70
2022-11-12T01:21:11.111Z,12.60
2022-11-12T01:23:42.535Z,12.60
2022-11-12T01:26:12.041Z,12.70
2022-11-12T01:28:40.745Z,12.60
2022-11-12T01:31:12.896Z,12.60
2022-11-12T01:33:40.768Z,12.60
2022-11-12T01:36:09.244Z,12.50
2022-11-12T01:38:37.410Z,12.40
2022-11-12T01:41:07.479Z,12.50
2022-11-12T01:43:35.654Z,12.60
2022-11-12T01:46:06.228Z,12.50
2022-11-12T01:48:39.008Z,12.60
2022-11-12T01:51:08.607Z,12.50
2022-11-12T01:53:43.070Z,12.60
2022-11-12T01:56:12.662Z,12.40
2022-11-12T01:58:41.934Z,12.50
2022-11-12T02:01:09.801Z,12.60
2022-11-12T02:03:37.617Z,12.70
2022-11-12T02:06:10.412Z,12.90
2022-11-12T02:08:39.606Z,12.90
2022-11-12T02:11:14.533Z,12.90
2022-11-12T02:14:01.303Z,13.00
2022-11-12T02:16:33.195Z,13.00
2022-11-12T02:19:01.283Z,13.00
2022-11-12T02:21:30.663Z,13.10
2022-11-12T02:23:59.854Z,13.00
2022-11-12T02:26:30.442Z,13.10
2022-11-12T02:28:58.279Z,13.00
2022-11-12T02:31:26.123Z,12.90
2022-11-12T02:33:53.905Z,12.80
2022-11-12T02:36:22.289Z,12.60
2022-11-12T02:38:51.541Z,12.50
2022-11-12T02:41:19.328Z,12.40
2022-11-12T02:43:47.042Z,12.40
2022-11-12T02:46:15.398Z,12.40
2022-11-12T02:48:43.333Z,12.40
2022-11-12T02:51:11.117Z,12.30
2022-11-12T02:53:38.934Z,12.30
2022-11-12T02:56:08.667Z,12.20
2022-11-12T02:58:36.492Z,11.90
2022-11-12T03:01:04.325Z,11.90
2022-11-12T03:03:32.154Z,11.80
2022-11-12T03:06:01.514Z,11.70
2022-11-12T03:08:29.568Z,11.50
2022-11-12T03:10:57.421Z,11.50
2022-11-12T03:13:26.498Z,11.40
2022-11-12T03:16:00.642Z,11.30
2022-11-12T03:18:28.744Z,11.20
2022-11-12T03:20:56.651Z,11.20
2022-11-12T03:23:24.650Z,11.30
2022-11-12T03:25:52.503Z,11.20
2022-11-12T03:28:20.255Z,11.20
2022-11-12T03:30:49.972Z,11.10
2022-11-12T03:33:17.843Z,11.10
2022-11-12T03:35:45.813Z,11.20
2022-11-12T03:38:13.768Z,11.20
2022-11-12T03:40:41.507Z,11.30
2022-11-12T03:43:10.086Z,11.30
2022-11-12T03:45:37.821Z,11.20
2022-11-12T03:48:07.626Z,11.30
2022-11-12T03:50:35.412Z,11.30
2022-11-12T03:53:03.141Z,11.40
2022-11-12T03:55:31.141Z,11.30
2022-11-12T03:57:59.601Z,11.40
2022-11-12T04:00:28.895Z,11.30
2022-11-12T04:02:57.169Z,11.20
2022-11-12T04:05:44.594Z,11.10
2022-11-12T04:08:33.006Z,11.20
2022-11-12T04:11:01.249Z,11.30
2022-11-12T04:13:28.423Z,11.20
2022-11-12T04:16:15.000Z,11.00
2022-11-12T04:19:00.834Z,10.90
2022-11-12T04:21:52.441Z,11.00
2022-11-12T04:24:42.834Z,11.00
2022-11-12T04:27:12.311Z,11.00
2022-11-12T04:29:57.651Z,10.90
2022-11-12T04:32:26.485Z,10.60
2022-11-12T04:34:54.783Z,10.60
2022-11-12T04:37:25.622Z,10.60
2022-11-12T04:39:53.924Z,10.60
2022-11-12T04:42:39.198Z,10.40
2022-11-12T04:45:08.835Z,10.50
2022-11-12T04:47:38.647Z,10.40
2022-11-12T04:50:09.753Z,10.40
2022-11-12T04:52:38.925Z,10.30
2022-11-12T04:55:07.639Z,10.20
2022-11-12T04:57:35.593Z,10.30
2022-11-12T05:00:03.700Z,10.20
2022-11-12T05:02:31.431Z,10.10
2022-11-12T05:04:59.189Z,10.10
2022-11-12T05:07:26.930Z,10.00
2022-11-12T05:09:56.040Z,10.00
2022-11-12T05:12:23.735Z,10.00
2022-11-12T05:14:51.550Z,10.00
2022-11-12T05:17:19.280Z,10.00
2022-11-12T05:19:46.996Z,10.00
2022-11-12T05:22:33.663Z,10.00
2022-11-12T05:25:04.599Z,9.80
2022-11-12T05:27:32.755Z,9.80
2022-11-12T05:30:00.519Z,9.80
2022-11-12T05:32:28.440Z,9.80
2022-11-12T05:34:56.150Z,9.60
2022-11-12T05:37:23.881Z,9.60
2022-11-12T05:39:51.619Z,9.60
2022-11-12T05:42:20.724Z,9.60
2022-11-12T05:44:48.480Z,9.70
2022-11-12T05:47:16.655Z,9.60
2022-11-12T05:49:44.401Z,9.70
2022-11-12T05:52:12.150Z,9.60
2022-11-12T05:54:39.840Z,9.70
2022-11-12T05:57:07.570Z,9.80
2022-11-12T05:59:36.661Z,9.90
2022-11-12T06:02:04.447Z,9.90
2022-11-12T06:04:32.235Z,10.00
2022-11-12T06:07:03.319Z,10.00
2022-11-12T06:09:31.148Z,9.80
2022-11-12T06:11:58.904Z,9.70
2022-11-12T06:14:26.699Z,9.60
2022-11-12T06:16:55.802Z,9.40
2022-11-12T06:19:23.501Z,9.40
2022-11-12T06:21:51.310Z,9.40
2022-11-12T06:24:19.174Z,9.60
2022-11-12T06:26:46.934Z,9.50
2022-11-12T06:29:14.690Z,9.50
2022-11-12T06:31:42.472Z,9.30
2022-11-12T06:34:12.422Z,9.30
2022-11-12T06:36:40.419Z,9.30
2022-11-12T06:39:08.144Z,9.20
2022-11-12T06:41:35.948Z,9.20
2022-11-12T06:44:05.171Z,9.30
2022-11-12T06:46:32.910Z,9.30
2022-11-12T06:49:00.636Z,9.30
2022-11-12T06:51:29.800Z,9.30
2022-11-12T06:53:57.612Z,9.20
2022-11-12T06:56:25.412Z,9.10
2022-11-12T06:58:53.316Z,9.20
2022-11-12T07:01:21.113Z,9.20
2022-11-12T07:03:53.055Z,9.30
2022-11-12T07:06:21.822Z,9.40
2022-11-12T07:08:51.645Z,9.40
2022-11-12T07:11:20.690Z,9.50
2022-11-12T07:13:48.880Z,9.50
2022-11-12T07:16:18.653Z,9.60
2022-11-12T07:18:47.231Z,9.70
2022-11-12T07:21:17.298Z,9.70
2022-11-12T07:23:45.728Z,9.80
2022-11-12T07:26:17.872Z,9.70
2022-11-12T07:28:46.226Z,9.60
2022-11-12T07:31:16.389Z,9.60
2022-11-12T07:33:45.060Z,9.60
2022-11-12T07:36:14.693Z,9.70
2022-11-12T07:38:44.050Z,9.70
2022-11-12T07:41:14.124Z,9.80
2022-11-12T07:43:45.020Z,9.90
2022-11-12T07:46:14.474Z,9.90
2022-11-12T07:48:42.833Z,10.00
2022-11-12T07:51:14.478Z,10.10
2022-11-12T07:53:42.821Z,10.20
2022-11-12T07:56:12.168Z,10.20
2022-11-12T07:58:40.169Z,10.30
2022-11-12T08:01:20.968Z,10.40
2022-11-12T08:03:48.943Z,10.50
2022-11-12T08:06:16.730Z,10.40
2022-11-12T08:08:44.500Z,10.50
2022-11-12T08:11:12.398Z,10.50
2022-11-12T08:13:40.275Z,10.60
2022-11-12T08:16:09.091Z,10.60
2022-11-12T08:18:38.263Z,10.70
2022-11-12T08:21:08.090Z,10.70
2022-11-12T08:23:35.907Z,10.70
2022-11-12T08:26:06.051Z,10.80
2022-11-12T08:28:35.628Z,11.00
2022-11-12T08:31:05.114Z,11.10
2022-11-12T08:33:36.263Z,11.30
2022-11-12T08:36:06.497Z,11.50
2022-11-12T08:38:34.600Z,11.60
2022-11-12T08:41:02.576Z,11.60
2022-11-12T08:43:30.614Z,11.70
2022-11-12T08:45:59.976Z,11.90
2022-11-12T08:48:28.997Z,12.00
2022-11-12T08:50:57.703Z,12.10
2022-11-12T08:53:28.147Z,12.20
2022-11-12T08:55:56.973Z,12.40
2022-11-12T08:58:25.886Z,12.50
2022-11-12T09:00:54.520Z,12.70
2022-11-12T09:03:25.044Z,12.80
2022-11-12T09:05:54.012Z,12.90
2022-11-12T09:08:24.235Z,13.10
2022-11-12T09:10:53.866Z,13.10
2022-11-12T09:13:22.050Z,13.30
2022-11-12T09:15:49.794Z,13.40
2022-11-12T09:18:19.525Z,13.50
2022-11-12T09:20:47.689Z,13.60
2022-11-12T09:23:17.730Z,13.60
2022-11-12T09:25:45.912Z,13.60
2022-11-12T09:28:16.832Z,13.70
2022-11-12T09:30:47.841Z,14.00
2022-11-12T09:33:16.015Z,14.00
2022-11-12T09:35:43.933Z,14.30
2022-11-12T09:38:11.841Z,14.00
2022-11-12T09:41:13.680Z,13.90
2022-11-12T09:43:48.251Z,14.40
2022-11-12T09:46:28.557Z,14.60
2022-11-12T09:49:02.830Z,14.90
2022-11-12T09:51:34.473Z,15.00
2022-11-12T09:54:08.512Z,15.00
2022-11-12T09:56:36.200Z,15.00
2022-11-12T09:59:10.500Z,15.20
2022-11-12T10:01:48.753Z,15.40
2022-11-12T10:04:38.976Z,15.40
2022-11-12T10:07:13.860Z,15.40
2022-11-12T10:09:47.960Z,15.30
2022-11-12T10:12:32.336Z,15.30
2022-11-12T10:15:55.289Z,15.30
2022-11-12T10:18:37.049Z,15.50
2022-11-12T10:21:13.319Z,15.30
2022-11-12T10:23:44.916Z,15.10
2022-11-12T10:26:15.045Z,15.20
2022-11-12T10:28:46.937Z,15.40
2022-11-12T10:31:17.899Z,15.40
2022-11-12T10:33:46.206Z,15.50
2022-11-12T10:36:21.192Z,15.30
2022-11-12T10:38:50.971Z,15.50
2022-11-12T10:41:20.750Z,15.40
2022-11-12T10:43:58.201Z,15.60
2022-11-12T10:46:29.376Z,15.70
2022-11-12T10:49:02.980Z,15.80
2022-11-12T10:51:33.663Z,15.80
2022-11-12T10:54:19.755Z,15.90
2022-11-12T10:56:55.051Z,15.90
2022-11-12T10:59:24.896Z,16.10
2022-11-12T11:01:58.716Z,16.10
2022-11-12T11:04:32.399Z,16.20
2022-11-12T11:07:03.809Z,16.30
2022-11-12T11:09:33.704Z,16.20
2022-11-12T11:12:01.915Z,16.20
2022-11-12T11:14:35.208Z,16.10
2022-11-12T11:17:09.672Z,16.10
2022-11-12T11:19:40.752Z,16.20
2022-11-12T11:22:29.845Z,16.00
2022-11-12T11:25:13.750Z,16.00
2022-11-12T11:27:45.464Z,16.20
2022-11-12T11:30:16.033Z,16.40
2022-11-12T11:33:16.038Z,16.30
2022-11-12T11:35:56.188Z,16.50
2022-11-12T11:38:35.024Z,16.50
2022-11-12T11:41:16.281Z,16.60
2022-11-12T11:43:59.786Z,16.70
2022-11-12T11:46:44.455Z,16.80
2022-11-12T11:49:42.642Z,16.90
2022-11-12T11:52:26.859Z,17.00
2022-11-12T11:55:10.361Z,16.90
2022-11-12T11:57:46.491Z,16.90
2022-11-12T12:00:19.304Z,17.00
2022-11-12T12:03:08.051Z,17.00
2022-11-12T12:05:43.851Z,17.00
2022-11-12T12:08:16.988Z,17.20
2022-11-12T12:11:07.477Z,17.30
2022-11-12T12:13:50.140Z,17.30
2022-11-12T12:16:27.707Z,17.30
2022-11-12T12:19:05.264Z,17.30
2022-11-12T12:21:42.160Z,17.30
2022-11-12T12:24:16.478Z,17.20
2022-11-12T12:26:49.596Z,17.40
2022-11-12T12:29:22.376Z,17.30
2022-11-12T12:31:53.968Z,17.30
2022-11-12T12:34:25.965Z,17.40
2022-11-12T12:37:02.615Z,17.40
2022-11-12T12:39:43.621Z,17.40
2022-11-12T12:42:21.357Z,17.50
2022-11-12T12:45:04.738Z,17.50
2022-11-12T12:47:37.088Z,17.60
2022-11-12T12:50:08.602Z,17.70
2022-11-12T12:53:06.364Z,17.70
2022-11-12T12:55:41.504Z,17.70
2022-11-12T12:58:25.177Z,17.80
2022-11-12T13:00:55.346Z,17.90
2022-11-12T13:03:53.082Z,17.90
2022-11-12T13:06:27.564Z,17.90
2022-11-12T13:08:59.919Z,17.90
2022-11-12T13:12:07.239Z,17.90
2022-11-12T13:15:19.439Z,17.80
2022-11-12T13:17:51.691Z,17.70
2022-11-12T13:20:38.841Z,17.70
2022-11-12T13:23:10.955Z,17.70
2022-11-12T13:25:40.403Z,17.60
2022-11-12T13:28:12.905Z,17.60
2022-11-12T13:31:00.857Z,17.60
2022-11-12T13:33:32.937Z,17.70
2022-11-12T13:36:34.054Z,17.60
2022-11-12T13:39:15.313Z,17.60
2022-11-12T13:42:02.204Z,17.60
2022-11-12T13:44:30.421Z,17.60
2022-11-12T13:46:58.218Z,17.60
2022-11-12T13:49:26.218Z,17.60
2022-11-12T13:51:56.725Z,17.60
2022-11-12T13:54:35.770Z,17.60
2022-11-12T13:57:27.607Z,17.60
2022-11-12T14:00:32.919Z,17.60
2022-11-12T14:03:03.570Z,17.60
2022-11-12T14:05:33.598Z,17.60
2022-11-12T14:08:37.692Z,17.60
2022-11-12T14:11:39.541Z,17.60
2022-11-12T14:14:16.988Z,17.60
2022-11-12T14:16:56.315Z,17.70
2022-11-12T14:19:57.566Z,17.50
2022-11-12T14:22:25.813Z,17.50
2022-11-12T14:25:00.922Z,17.60
2022-11-12T14:27:36.771Z,17.50
2022-11-12T14:30:24.876Z,17.20
2022-11-12T14:32:54.709Z,17.20
2022-11-12T14:35:36.884Z,17.20
2022-11-12T14:38:11.154Z,17.30
2022-11-12T14:40:45.541Z,17.30
2022-11-12T14:43:27.415Z,17.40
2022-11-12T14:45:59.066Z,17.40
2022-11-12T14:48:27.160Z,17.30
2022-11-12T14:51:04.229Z,17.20
2022-11-12T14:53:34.994Z,17.20
2022-11-12T14:56:07.008Z,17.20
2022-11-12T14:58:35.751Z,17.20
2022-11-12T15:04:18.308Z,17.10
2022-11-12T15:06:53.563Z,16.90
2022-11-12T15:09:33.455Z,16.90
2022-11-12T15:12:01.507Z,16.80
2022-11-12T15:14:29.365Z,16.70
2022-11-12T15:16:57.119Z,16.50
2022-11-12T15:19:27.319Z,16.30
2022-11-12T15:21:56.970Z,16.40
2022-11-12T15:24:30.471Z,16.40
2022-11-12T15:26:59.610Z,16.40
2022-11-12T15:29:33.840Z,16.40
2022-11-12T15:32:07.568Z,16.20
2022-11-12T15:34:49.556Z,15.90
2022-11-12T15:37:26.531Z,15.90
2022-11-12T15:39:56.384Z,15.80
2022-11-12T15:42:28.399Z,15.50
2022-11-12T15:44:59.716Z,15.60
2022-11-12T15:47:27.624Z,15.40
2022-11-12T15:49:58.725Z,15.40
2022-11-12T15:52:26.525Z,15.20
2022-11-12T15:54:54.515Z,15.20
2022-11-12T15:57:24.345Z,15.00
2022-11-12T15:59:56.986Z,14.90
2022-11-12T16:02:25.258Z,14.80
2022-11-12T16:04:53.197Z,14.90
2022-11-12T16:07:22.296Z,15.00
2022-11-12T16:09:49.991Z,14.80
2022-11-12T16:12:17.776Z,14.80
2022-11-12T16:14:45.508Z,14.70
2022-11-12T16:17:15.488Z,14.90
2022-11-12T16:19:43.319Z,14.70
2022-11-12T16:22:13.415Z,14.70
2022-11-12T16:24:43.419Z,14.50
2022-11-12T16:27:14.222Z,14.40
2022-11-12T16:29:42.120Z,14.30
2022-11-12T16:32:13.877Z,14.20
2022-11-12T16:34:41.649Z,14.10
2022-11-12T16:37:12.761Z,13.90
2022-11-12T16:39:41.913Z,13.80
2022-11-12T16:42:10.757Z,13.80
2022-11-12T16:44:38.586Z,13.70
2022-11-12T16:47:07.074Z,13.70
2022-11-12T16:49:38.690Z,13.50
2022-11-12T16:52:06.818Z,13.50
2022-11-12T16:54:34.484Z,13.50
2022-11-12T16:57:03.571Z,13.60
2022-11-12T16:59:31.281Z,13.50
2022-11-12T17:01:59.400Z,13.30
2022-11-12T17:04:27.157Z,13.20
2022-11-12T17:06:54.874Z,13.20
2022-11-12T17:09:22.679Z,13.20
2022-11-12T17:11:50.341Z,13.30
2022-11-12T17:14:24.209Z,13.10
2022-11-12T17:16:54.809Z,12.80
2022-11-12T17:19:22.518Z,12.80
2022-11-12T17:21:50.520Z,12.90
2022-11-12T17:24:18.266Z,13.10
2022-11-12T17:26:46.168Z,13.00
2022-11-12T17:29:13.823Z,12.80
2022-11-12T17:31:42.871Z,12.60
2022-11-12T17:34:10.955Z,12.70
2022-11-12T17:36:43.326Z,12.80
2022-11-12T17:39:12.634Z,12.60
2022-11-12T17:41:40.637Z,12.50
2022-11-12T17:44:08.479Z,12.50
2022-11-12T17:46:36.403Z,12.40
2022-11-12T17:49:05.501Z,12.30
2022-11-12T17:51:33.242Z,12.30
2022-11-12T17:54:00.924Z,12.20
2022-11-12T17:56:31.830Z,12.20
2022-11-12T17:59:04.512Z,12.10
2022-11-12T18:01:33.874Z,12.20
2022-11-12T18:04:01.816Z,12.20
2022-11-12T18:06:32.230Z,12.20
2022-11-12T18:09:02.138Z,12.10
2022-11-12T18:11:31.001Z,11.90
2022-11-12T18:13:58.839Z,12.00
2022-11-12T18:16:28.426Z,12.20
2022-11-12T18:18:56.863Z,12.10
2022-11-12T18:21:25.524Z,11.80
2022-11-12T18:23:55.329Z,11.80
2022-11-12T18:26:23.210Z,11.70
2022-11-12T18:28:52.385Z,11.60
2022-11-12T18:31:20.964Z,11.80
2022-11-12T18:33:49.077Z,12.00
2022-11-12T18:36:19.755Z,11.70
2022-11-12T18:38:50.076Z,11.60
2022-11-12T18:41:21.045Z,11.60
2022-11-12T18:43:48.691Z,11.60
2022-11-12T18:46:16.357Z,11.50
2022-11-12T18:48:44.047Z,11.50
2022-11-12T18:51:13.404Z,11.50
2022-11-12T18:53:42.914Z,11.80
2022-11-12T18:56:13.394Z,11.80
2022-11-12T18:58:42.595Z,11.80
2022-11-12T19:01:12.917Z,11.60
2022-11-12T19:03:40.661Z,11.50
2022-11-12T19:06:09.441Z,11.70
2022-11-12T19:08:37.137Z,11.70
2022-11-12T19:11:07.102Z,11.50
2022-11-12T19:13:34.800Z,11.40
2022-11-12T19:16:10.646Z,11.70
2022-11-12T19:18:39.134Z,11.60
2022-11-12T19:21:09.159Z,11.40
2022-11-12T19:23:37.044Z,11.20
2022-11-12T19:26:06.629Z,11.20
2022-11-12T19:28:35.333Z,11.40
2022-11-12T19:31:04.511Z,11.30
2022-11-12T19:33:33.653Z,11.20
2022-11-12T19:36:06.338Z,11.00
2022-11-12T19:38:34.470Z,11.10
2022-11-12T19:41:04.897Z,11.10
2022-11-12T19:43:32.984Z,11.10
2022-11-12T19:46:00.711Z,10.90
2022-11-12T19:48:28.900Z,11.10
2022-11-12T19:51:01.983Z,11.10
2022-11-12T19:53:31.638Z,10.90
2022-11-12T19:56:00.876Z,10.60
2022-11-12T19:58:29.179Z,10.70
2022-11-12T20:01:04.884Z,10.80
2022-11-12T20:03:32.781Z,10.90
2022-11-12T20:06:06.787Z,10.70
2022-11-12T20:08:34.736Z,10.70
2022-11-12T20:11:03.350Z,10.90
2022-11-12T20:13:31.077Z,10.90
2022-11-12T20:15:59.314Z,10.70
2022-11-12T20:18:27.390Z,10.70
2022-11-12T20:20:57.206Z,10.80
2022-11-12T20:23:27.249Z,10.90
2022-11-12T20:25:55.593Z,10.60
2022-11-12T20:28:23.494Z,10.60
2022-11-12T20:30:51.313Z,10.70
2022-11-12T20:33:19.040Z,10.80
2022-11-12T20:35:46.730Z,10.70
2022-11-12T20:38:14.404Z,10.70
2022-11-12T20:40:43.475Z,10.80
2022-11-12T20:43:11.255Z,10.60
2022-11-12T20:45:38.945Z,10.50
2022-11-12T20:48:07.723Z,10.70
2022-11-12T20:50:36.847Z,10.70
2022-11-12T20:53:04.648Z,10.80
2022-11-12T20:55:33.316Z,10.90
2022-11-12T20:58:02.469Z,10.80
2022-11-12T21:00:30.248Z,10.70
2022-11-12T21:02:57.979Z,10.60
2022-11-12T21:05:25.887Z,10.70
2022-11-12T21:07:55.602Z,10.60
2022-11-12T21:10:23.276Z,10.60
2022-11-12T21:12:51.050Z,10.70
2022-11-12T21:15:20.103Z,10.70
2022-11-12T21:17:51.322Z,10.70
2022-11-12T21:20:19.015Z,10.70
2022-11-12T21:22:46.716Z,10.80
2022-11-12T21:25:14.731Z,10.80
2022-11-12T21:27:42.414Z,10.90
2022-11-12T21:30:11.468Z,10.80
2022-11-12T21:32:40.536Z,10.80
2022-11-12T21:35:09.334Z,10.80
2022-11-12T21:37:37.141Z,10.80
2022-11-12T21:40:05.704Z,10.70
2022-11-12T21:42:33.459Z,10.70
2022-11-12T21:45:01.194Z,10.70
2022-11-12T21:47:28.971Z,10.60
2022-11-12T21:49:58.096Z,10.60
2022-11-12T21:52:25.928Z,10.40
2022-11-12T21:54:53.659Z,10.50
2022-11-12T21:57:21.430Z,10.60
2022-11-12T21:59:49.152Z,10.60
2022-11-12T22:02:16.942Z,10.60
2022-11-12T22:04:44.653Z,10.60
2022-11-12T22:07:13.668Z,10.50
2022-11-12T22:09:41.416Z,10.70
2022-11-12T22:12:09.076Z,10.90
2022-11-12T22:14:36.900Z,10.90
2022-11-12T22:17:04.587Z,10.90
2022-11-12T22:19:34.323Z,10.80
2022-11-12T22:22:02.108Z,10.60
2022-11-12T22:24:31.145Z,10.70
2022-11-12T22:27:04.055Z,10.70
2022-11-12T22:29:33.025Z,10.70
2022-11-12T22:32:00.722Z,10.80
2022-11-12T22:34:28.350Z,10.90
2022-11-12T22:36:55.991Z,10.80
2022-11-12T22:39:23.676Z,11.00
2022-11-12T22:41:52.780Z,11.00
2022-11-12T22:44:20.847Z,11.10
2022-11-12T22:46:48.513Z,11.00
2022-11-12T22:49:16.178Z,11.00
2022-11-12T22:51:43.868Z,11.00
2022-11-12T22:54:15.542Z,11.00
2022-11-12T22:56:43.229Z,11.00
2022-11-12T22:59:12.863Z,10.90
2022-11-12T23:01:49.374Z,10.80
2022-11-12T23:04:17.094Z,10.70
2022-11-12T23:06:44.803Z,10.60
2022-11-12T23:09:16.083Z,10.40
2022-11-12T23:11:43.913Z,10.60
2022-11-12T23:14:13.018Z,10.70
2022-11-12T23:16:40.719Z,10.70
2022-11-12T23:19:08.467Z,10.60
2022-11-12T23:21:36.205Z,10.70
2022-11-12T23:24:03.894Z,10.80
2022-11-12T23:26:32.204Z,10.80
2022-11-12T23:29:00.390Z,10.80
2022-11-12T23:31:31.409Z,10.90
2022-11-12T23:34:00.484Z,10.90
2022-11-12T23:36:29.388Z,10.90
2022-11-12T23:38:57.732Z,10.80
2022-11-12T23:41:27.082Z,10.90
2022-11-12T23:43:55.925Z,10.90
2022-11-12T23:46:24.335Z,11.00
2022-11-12T23:48:53.468Z,11.00
2022-11-12T23:51:22.164Z,10.80
2022-11-12T23:53:50.290Z,10.80
2022-11-12T23:56:19.262Z,10.90
2022-11-12T23:58:48.012Z,10.70
